createdAt,value
2018-06-29T00:00:38.838Z,20.00
2018-06-29T00:03:07.193Z,20.00
2018-06-29T00:05:35.575Z,20.00
2018-06-29T00:08:03.923Z,19.90
2018-06-29T00:10:32.293Z,19.90
2018-06-29T00:13:00.660Z,19.70
2018-06-29T00:15:29.014Z,19.80
2018-06-29T00:17:57.389Z,19.80
2018-06-29T00:20:25.764Z,19.90
2018-06-29T00:22:54.234Z,19.80
2018-06-29T00:25:22.585Z,19.80
2018-06-29T00:27:51.002Z,19.80
2018-06-29T00:30:19.325Z,19.80
2018-06-29T00:32:47.684Z,19.70
2018-06-29T00:35:16.021Z,19.70
2018-06-29T00:37:44.404Z,19.70
2018-06-29T00:40:12.735Z,19.60
2018-06-29T00:42:41.106Z,19.50
2018-06-29T00:45:09.508Z,19.50
2018-06-29T00:47:37.912Z,19.40
2018-06-29T00:50:06.293Z,19.30
2018-06-29T00:55:02.784Z,19.00
2018-06-29T00:57:31.145Z,19.00
2018-06-29T00:59:59.490Z,19.00
2018-06-29T01:02:27.821Z,19.00
2018-06-29T01:04:56.182Z,19.00
2018-06-29T01:07:24.510Z,19.00
2018-06-29T01:09:52.829Z,19.00
2018-06-29T01:12:21.132Z,19.10
2018-06-29T01:14:49.484Z,19.00
2018-06-29T01:17:17.818Z,19.00
2018-06-29T01:19:46.214Z,18.90
2018-06-29T01:22:14.568Z,18.90
2018-06-29T01:24:43.086Z,18.90
2018-06-29T01:27:11.417Z,18.90
2018-06-29T01:29:39.749Z,18.90
2018-06-29T01:32:08.116Z,18.90
2018-06-29T01:34:36.557Z,18.90
2018-06-29T01:37:04.891Z,18.90
2018-06-29T01:39:33.200Z,18.90
2018-06-29T01:42:01.534Z,18.80
2018-06-29T01:44:29.855Z,18.80
2018-06-29T01:46:58.197Z,18.80
2018-06-29T01:49:26.541Z,18.90
2018-06-29T01:51:55.212Z,18.90
2018-06-29T01:56:51.656Z,18.90
2018-06-29T01:59:19.984Z,18.90
2018-06-29T02:01:48.453Z,19.00
2018-06-29T02:04:16.813Z,19.00
2018-06-29T02:06:45.146Z,19.10
2018-06-29T02:09:13.522Z,19.00
2018-06-29T02:11:41.895Z,19.00
2018-06-29T02:14:10.205Z,19.00
2018-06-29T02:16:38.556Z,19.00
2018-06-29T02:19:06.891Z,19.00
2018-06-29T02:24:03.328Z,18.90
2018-06-29T02:26:31.669Z,18.90
2018-06-29T02:28:59.997Z,18.90
2018-06-29T02:31:28.310Z,19.00
2018-06-29T02:33:56.636Z,19.00
2018-06-29T02:36:25.012Z,19.00
2018-06-29T02:38:53.337Z,19.10
2018-06-29T02:41:21.669Z,19.00
2018-06-29T02:43:50.062Z,19.10
2018-06-29T02:46:18.365Z,19.00
2018-06-29T02:48:46.773Z,19.10
2018-06-29T02:51:15.176Z,19.10
2018-06-29T02:53:43.617Z,19.00
2018-06-29T02:56:11.977Z,19.00
2018-06-29T02:58:40.331Z,19.00
2018-06-29T03:01:08.763Z,19.00
2018-06-29T03:03:37.094Z,19.10
2018-06-29T03:06:05.564Z,18.90
2018-06-29T03:08:33.902Z,18.90
2018-06-29T03:11:02.236Z,18.90
2018-06-29T03:13:30.638Z,18.90
2018-06-29T03:15:59.000Z,18.80
2018-06-29T03:18:27.327Z,18.80
2018-06-29T03:20:55.669Z,18.70
2018-06-29T03:23:24.005Z,18.80
2018-06-29T03:25:52.375Z,18.80
2018-06-29T03:28:20.687Z,18.70
2018-06-29T03:30:48.990Z,18.70
2018-06-29T03:33:17.357Z,18.80
2018-06-29T03:35:45.713Z,18.60
2018-06-29T03:38:14.047Z,18.60
2018-06-29T03:40:42.458Z,18.60
2018-06-29T03:43:10.726Z,18.60
2018-06-29T03:45:39.103Z,18.60
2018-06-29T03:48:07.389Z,18.60
2018-06-29T03:50:35.718Z,18.60
2018-06-29T03:53:04.050Z,18.60
2018-06-29T03:55:32.430Z,18.70
2018-06-29T03:58:00.804Z,18.60
2018-06-29T04:00:29.152Z,18.60
2018-06-29T04:02:57.490Z,18.60
2018-06-29T04:05:25.805Z,18.60
2018-06-29T04:07:54.085Z,18.50
2018-06-29T04:10:22.401Z,18.50
2018-06-29T04:12:50.760Z,18.50
2018-06-29T04:15:19.091Z,18.50
2018-06-29T04:17:47.439Z,18.60
2018-06-29T04:20:15.837Z,18.60
2018-06-29T04:22:44.198Z,18.60
2018-06-29T04:25:12.549Z,18.60
2018-06-29T04:27:40.896Z,18.60
2018-06-29T04:30:09.280Z,18.50
2018-06-29T04:32:37.576Z,18.40
2018-06-29T04:35:05.942Z,18.40
2018-06-29T04:37:34.334Z,18.40
2018-06-29T04:40:02.646Z,18.50
2018-06-29T04:42:30.958Z,18.50
2018-06-29T04:44:59.262Z,18.60
2018-06-29T04:47:27.591Z,18.60
2018-06-29T04:49:55.950Z,18.70
2018-06-29T04:52:24.291Z,18.80
2018-06-29T04:54:52.824Z,18.70
2018-06-29T04:57:21.169Z,18.80
2018-06-29T04:59:51.104Z,18.80
2018-06-29T05:02:19.466Z,18.90
2018-06-29T05:04:47.854Z,18.90
2018-06-29T05:07:16.158Z,18.90
2018-06-29T05:09:44.486Z,18.80
2018-06-29T05:12:12.856Z,18.70
2018-06-29T05:14:41.211Z,18.60
2018-06-29T05:17:09.571Z,18.60
2018-06-29T05:19:37.979Z,18.60
2018-06-29T05:22:06.417Z,18.60
2018-06-29T05:24:34.758Z,18.60
2018-06-29T05:27:03.136Z,18.50
2018-06-29T05:29:31.489Z,18.50
2018-06-29T05:31:59.878Z,18.40
2018-06-29T05:34:29.254Z,18.30
2018-06-29T05:36:57.701Z,18.30
2018-06-29T05:39:26.049Z,18.30
2018-06-29T05:41:54.425Z,18.40
2018-06-29T05:44:22.747Z,18.30
2018-06-29T05:46:51.263Z,18.30
2018-06-29T05:49:19.652Z,18.30
2018-06-29T05:51:48.044Z,18.30
2018-06-29T05:54:16.421Z,18.30
2018-06-29T05:56:44.750Z,18.40
2018-06-29T05:59:13.140Z,18.50
2018-06-29T06:01:41.589Z,18.40
2018-06-29T06:04:09.911Z,18.30
2018-06-29T06:06:38.253Z,18.40
2018-06-29T06:09:08.501Z,18.40
2018-06-29T06:11:36.836Z,18.40
2018-06-29T06:14:05.616Z,18.40
2018-06-29T06:16:34.009Z,18.50
2018-06-29T06:19:13.858Z,18.60
2018-06-29T06:21:42.238Z,18.70
2018-06-29T06:24:10.714Z,18.80
2018-06-29T06:26:39.077Z,18.90
2018-06-29T06:29:07.458Z,19.00
2018-06-29T06:31:35.846Z,19.00
2018-06-29T06:34:04.217Z,19.10
2018-06-29T06:36:32.917Z,19.20
2018-06-29T06:39:01.262Z,19.30
2018-06-29T06:41:29.773Z,19.90
2018-06-29T06:43:58.188Z,20.40
2018-06-29T06:46:26.561Z,20.80
2018-06-29T06:48:54.928Z,21.10
2018-06-29T06:51:23.861Z,21.50
2018-06-29T06:53:52.225Z,22.00
2018-06-29T06:56:20.602Z,22.80
2018-06-29T06:58:48.934Z,23.20
2018-06-29T07:01:17.288Z,23.30
2018-06-29T07:03:45.626Z,23.60
2018-06-29T07:06:13.958Z,23.70
2018-06-29T07:08:42.318Z,24.00
2018-06-29T07:11:10.702Z,24.70
2018-06-29T07:13:39.065Z,25.00
2018-06-29T07:16:07.564Z,25.10
2018-06-29T07:18:35.940Z,25.10
2018-06-29T07:21:04.464Z,24.90
2018-06-29T07:23:32.850Z,25.00
2018-06-29T07:26:01.310Z,25.30
2018-06-29T07:28:29.632Z,25.40
2018-06-29T07:30:57.997Z,25.40
2018-06-29T07:33:26.440Z,25.70
2018-06-29T07:35:54.877Z,26.10
2018-06-29T07:38:23.283Z,26.20
2018-06-29T07:40:51.698Z,25.90
2018-06-29T07:43:20.218Z,25.80
2018-06-29T07:45:48.921Z,25.80
2018-06-29T07:48:17.442Z,26.00
2018-06-29T07:50:45.944Z,26.10
2018-06-29T07:53:14.306Z,26.30
2018-06-29T07:55:42.735Z,26.40
2018-06-29T07:58:11.155Z,26.70
2018-06-29T08:00:39.638Z,26.30
2018-06-29T08:03:08.042Z,26.10
2018-06-29T08:05:37.259Z,26.60
2018-06-29T08:08:05.680Z,26.40
2018-06-29T08:10:34.184Z,26.30
2018-06-29T08:13:02.574Z,26.40
2018-06-29T08:15:31.222Z,25.80
2018-06-29T08:17:59.629Z,25.90
2018-06-29T08:20:28.008Z,26.10
2018-06-29T08:22:56.365Z,25.70
2018-06-29T08:25:24.889Z,25.40
2018-06-29T08:27:53.282Z,25.70
2018-06-29T08:30:21.707Z,26.00
2018-06-29T08:32:50.096Z,25.50
2018-06-29T08:35:18.514Z,25.60
2018-06-29T08:37:46.948Z,25.50
2018-06-29T08:40:15.299Z,25.40
2018-06-29T08:42:44.522Z,25.50
2018-06-29T08:45:12.945Z,25.60
2018-06-29T08:47:41.946Z,25.80
2018-06-29T08:50:10.396Z,25.90
2018-06-29T08:52:38.788Z,25.70
2018-06-29T08:55:07.286Z,25.60
2018-06-29T09:00:06.018Z,25.70
2018-06-29T09:02:34.599Z,25.70
2018-06-29T09:05:03.094Z,25.30
2018-06-29T09:07:33.520Z,25.70
2018-06-29T09:10:02.024Z,25.70
2018-06-29T09:12:30.963Z,25.70
2018-06-29T09:14:59.500Z,25.70
2018-06-29T09:17:27.953Z,25.80
2018-06-29T09:22:24.551Z,25.70
2018-06-29T09:24:53.077Z,25.90
2018-06-29T09:27:21.441Z,25.70
2018-06-29T09:29:49.854Z,25.80
2018-06-29T09:32:18.331Z,26.10
2018-06-29T09:37:14.875Z,26.10
2018-06-29T09:39:43.930Z,26.00
2018-06-29T09:42:12.347Z,26.10
2018-06-29T09:44:40.800Z,26.10
2018-06-29T09:47:10.358Z,26.40
2018-06-29T09:49:39.628Z,26.10
2018-06-29T09:52:08.030Z,26.00
2018-06-29T09:57:05.634Z,26.40
2018-06-29T09:59:34.700Z,26.50
2018-06-29T10:02:05.450Z,26.60
2018-06-29T10:04:37.835Z,26.80
2018-06-29T10:07:06.533Z,27.10
2018-06-29T10:09:35.113Z,27.10
2018-06-29T10:12:04.162Z,27.30
2018-06-29T10:17:00.922Z,26.80
2018-06-29T10:19:30.298Z,27.10
2018-06-29T10:21:58.587Z,27.40
2018-06-29T10:24:27.156Z,27.30
2018-06-29T10:26:55.517Z,27.30
2018-06-29T10:29:24.671Z,27.10
2018-06-29T10:31:53.678Z,26.90
2018-06-29T10:34:22.150Z,27.10
2018-06-29T10:39:18.686Z,27.30
2018-06-29T10:44:15.279Z,27.60
2018-06-29T10:46:43.698Z,27.60
2018-06-29T10:49:12.125Z,28.00
2018-06-29T10:51:41.123Z,27.90
2018-06-29T10:54:09.573Z,28.20
2018-06-29T10:56:38.037Z,28.00
2018-06-29T10:59:06.541Z,27.60
2018-06-29T11:01:35.257Z,27.70
2018-06-29T11:04:05.134Z,27.70
2018-06-29T11:06:33.815Z,27.60
2018-06-29T11:09:02.262Z,27.60
2018-06-29T11:11:30.642Z,27.50
2018-06-29T11:13:59.015Z,27.90
2018-06-29T11:16:27.427Z,28.30
2018-06-29T11:18:55.845Z,28.30
2018-06-29T11:21:24.209Z,28.20
2018-06-29T11:23:52.675Z,28.10
2018-06-29T11:26:21.106Z,28.30
2018-06-29T11:28:49.556Z,28.30
2018-06-29T11:31:19.776Z,28.30
2018-06-29T11:33:48.755Z,28.50
2018-06-29T11:36:18.389Z,28.60
2018-06-29T11:38:46.975Z,28.60
2018-06-29T11:41:16.064Z,28.60
2018-06-29T11:43:44.500Z,29.00
2018-06-29T11:46:12.921Z,29.10
2018-06-29T11:48:42.692Z,28.80
2018-06-29T11:51:11.077Z,28.70
2018-06-29T11:53:40.478Z,28.60
2018-06-29T11:56:09.769Z,28.80
2018-06-29T11:58:38.115Z,28.00
2018-06-29T12:01:06.914Z,28.40
2018-06-29T12:03:36.007Z,28.70
2018-06-29T12:06:04.406Z,29.00
2018-06-29T12:08:32.869Z,29.40
2018-06-29T12:11:02.010Z,29.70
2018-06-29T12:13:30.380Z,30.10
2018-06-29T12:15:58.789Z,30.00
2018-06-29T12:18:27.274Z,30.00
2018-06-29T12:20:56.085Z,30.50
2018-06-29T12:23:24.135Z,30.80
2018-06-29T12:25:52.558Z,31.00
2018-06-29T12:28:20.979Z,31.60
2018-06-29T12:30:49.387Z,31.60
2018-06-29T12:33:17.819Z,31.20
2018-06-29T12:35:47.322Z,31.70
2018-06-29T12:38:15.948Z,32.40
2018-06-29T12:40:44.513Z,31.80
2018-06-29T12:43:13.242Z,31.60
2018-06-29T12:45:41.689Z,31.70
2018-06-29T12:48:10.078Z,31.60
2018-06-29T12:50:38.455Z,32.50
2018-06-29T12:53:07.209Z,32.10
2018-06-29T12:55:36.818Z,32.20
2018-06-29T12:58:05.290Z,32.40
2018-06-29T13:00:34.319Z,32.50
2018-06-29T13:03:02.677Z,32.70
2018-06-29T13:05:32.140Z,32.50
2018-06-29T13:08:00.513Z,32.10
2018-06-29T13:10:28.904Z,31.80
2018-06-29T13:13:02.976Z,31.50
2018-06-29T13:15:31.485Z,31.00
2018-06-29T13:17:59.966Z,30.50
2018-06-29T13:20:28.887Z,30.30
2018-06-29T13:22:57.367Z,30.20
2018-06-29T13:25:25.893Z,30.60
2018-06-29T13:27:55.480Z,30.80
2018-06-29T13:30:23.933Z,31.00
2018-06-29T13:32:52.384Z,31.60
2018-06-29T13:35:21.030Z,32.60
2018-06-29T13:37:49.461Z,32.10
2018-06-29T13:40:18.668Z,31.60
2018-06-29T13:42:49.106Z,32.40
2018-06-29T13:45:17.560Z,32.90
2018-06-29T13:47:45.963Z,32.80
2018-06-29T13:50:14.533Z,32.60
2018-06-29T13:52:42.894Z,33.00
2018-06-29T13:55:11.481Z,34.20
2018-06-29T13:57:40.850Z,34.30
2018-06-29T14:00:10.452Z,34.50
2018-06-29T14:02:39.632Z,33.80
2018-06-29T14:05:08.156Z,33.80
2018-06-29T14:07:36.543Z,34.50
2018-06-29T14:10:05.470Z,34.40
2018-06-29T14:12:33.968Z,33.40
2018-06-29T14:15:02.338Z,32.70
2018-06-29T14:19:58.853Z,33.40
2018-06-29T14:22:27.324Z,33.80
2018-06-29T14:24:56.369Z,34.40
2018-06-29T14:27:24.727Z,34.90
2018-06-29T14:29:53.858Z,34.20
2018-06-29T14:32:23.829Z,34.10
2018-06-29T14:34:52.224Z,34.40
2018-06-29T14:39:49.931Z,33.40
2018-06-29T14:42:18.333Z,33.10
2018-06-29T14:44:47.160Z,33.40
2018-06-29T14:47:15.564Z,33.40
2018-06-29T14:49:44.468Z,33.90
2018-06-29T14:52:12.813Z,33.50
2018-06-29T14:54:41.186Z,33.50
2018-06-29T14:57:10.122Z,33.40
2018-06-29T14:59:38.582Z,33.60
2018-06-29T15:02:06.965Z,33.50
2018-06-29T15:04:35.358Z,34.40
2018-06-29T15:07:03.740Z,34.80
2018-06-29T15:09:32.211Z,35.30
2018-06-29T15:12:00.561Z,36.20
2018-06-29T15:14:29.015Z,36.70
2018-06-29T15:16:57.440Z,37.00
2018-06-29T15:19:25.870Z,37.10
2018-06-29T15:21:54.421Z,36.60
2018-06-29T15:24:22.861Z,36.00
2018-06-29T15:26:51.301Z,34.60
2018-06-29T15:29:20.141Z,34.40
2018-06-29T15:31:48.624Z,34.60
2018-06-29T15:34:18.565Z,35.00
2018-06-29T15:36:46.910Z,35.40
2018-06-29T15:39:15.294Z,35.40
2018-06-29T15:41:43.645Z,34.30
2018-06-29T15:44:12.172Z,33.50
2018-06-29T15:46:40.609Z,33.10
2018-06-29T15:49:09.849Z,33.10
2018-06-29T15:51:38.239Z,33.10
2018-06-29T15:54:06.609Z,33.40
2018-06-29T15:56:35.165Z,33.60
2018-06-29T15:59:03.529Z,34.30
2018-06-29T16:01:31.886Z,34.80
2018-06-29T16:04:00.825Z,35.90
2018-06-29T16:06:29.318Z,35.80
2018-06-29T16:08:57.704Z,34.60
2018-06-29T16:11:26.942Z,34.50
2018-06-29T16:13:55.277Z,34.40
2018-06-29T16:16:23.613Z,34.80
2018-06-29T16:18:51.965Z,34.90
2018-06-29T16:21:20.339Z,35.00
2018-06-29T16:23:48.690Z,35.70
2018-06-29T16:26:17.828Z,34.90
2018-06-29T16:28:46.230Z,34.30
2018-06-29T16:31:17.693Z,33.80
2018-06-29T16:33:46.104Z,34.50
2018-06-29T16:36:14.577Z,34.40
2018-06-29T16:38:42.972Z,34.10
2018-06-29T16:41:11.314Z,33.70
2018-06-29T16:43:39.675Z,33.00
2018-06-29T16:46:08.166Z,32.50
2018-06-29T16:48:36.699Z,32.10
2018-06-29T16:51:05.073Z,32.40
2018-06-29T16:53:34.214Z,32.70
2018-06-29T16:56:02.581Z,32.60
2018-06-29T16:58:31.695Z,32.40
2018-06-29T17:01:00.056Z,31.50
2018-06-29T17:03:28.456Z,30.80
2018-06-29T17:05:56.921Z,30.20
2018-06-29T17:08:25.264Z,30.20
2018-06-29T17:10:53.631Z,30.30
2018-06-29T17:13:22.015Z,30.70
2018-06-29T17:15:50.413Z,30.60
2018-06-29T17:18:18.840Z,30.50
2018-06-29T17:20:47.189Z,29.90
2018-06-29T17:23:15.581Z,29.60
2018-06-29T17:25:44.006Z,29.30
2018-06-29T17:28:12.434Z,28.80
2018-06-29T17:30:40.916Z,28.30
2018-06-29T17:33:09.303Z,28.30
2018-06-29T17:35:37.759Z,28.10
2018-06-29T17:38:06.179Z,28.00
2018-06-29T17:40:34.562Z,27.90
2018-06-29T17:43:02.949Z,27.80
2018-06-29T17:45:31.354Z,27.60
2018-06-29T17:47:59.728Z,27.40
2018-06-29T17:50:28.119Z,27.40
2018-06-29T17:52:56.476Z,27.40
2018-06-29T17:55:25.673Z,27.30
2018-06-29T17:57:54.745Z,27.10
2018-06-29T18:00:23.160Z,27.10
2018-06-29T18:02:51.515Z,26.90
2018-06-29T18:05:20.860Z,26.90
2018-06-29T18:07:49.174Z,26.70
2018-06-29T18:10:17.555Z,26.60
2018-06-29T18:12:46.022Z,26.60
2018-06-29T18:15:14.335Z,26.50
2018-06-29T18:17:42.752Z,26.50
2018-06-29T18:20:11.738Z,26.50
2018-06-29T18:22:40.093Z,26.50
2018-06-29T18:25:08.458Z,26.50
2018-06-29T18:27:36.823Z,26.40
2018-06-29T18:30:05.555Z,26.30
2018-06-29T18:32:33.897Z,26.30
2018-06-29T18:35:02.244Z,26.30
2018-06-29T18:37:30.595Z,26.20
2018-06-29T18:39:58.929Z,26.20
2018-06-29T18:42:27.313Z,26.00
2018-06-29T18:47:24.681Z,25.80
2018-06-29T18:49:53.864Z,25.60
2018-06-29T18:52:22.246Z,25.50
2018-06-29T18:54:50.671Z,25.30
2018-06-29T18:57:19.044Z,25.30
2018-06-29T18:59:47.380Z,25.10
2018-06-29T19:02:15.881Z,25.00
2018-06-29T19:04:45.026Z,24.90
2018-06-29T19:07:13.941Z,24.70
2018-06-29T19:09:42.304Z,24.70
2018-06-29T19:12:10.792Z,24.70
2018-06-29T19:14:39.285Z,24.50
2018-06-29T19:17:07.657Z,24.30
2018-06-29T19:19:36.700Z,24.20
2018-06-29T19:22:05.197Z,24.00
2018-06-29T19:24:33.674Z,23.90
2018-06-29T19:27:02.104Z,23.70
2018-06-29T19:29:30.542Z,23.60
2018-06-29T19:31:59.691Z,23.40
2018-06-29T19:34:28.057Z,23.30
2018-06-29T19:36:56.469Z,23.30
2018-06-29T19:39:24.965Z,23.20
2018-06-29T19:41:53.556Z,23.10
2018-06-29T19:44:22.083Z,23.00
2018-06-29T19:46:50.429Z,22.90
2018-06-29T19:49:19.020Z,22.80
2018-06-29T19:51:47.423Z,22.70
2018-06-29T19:54:15.865Z,22.60
2018-06-29T19:56:44.330Z,22.60
2018-06-29T19:59:12.725Z,22.50
2018-06-29T20:01:41.188Z,22.50
2018-06-29T20:04:09.594Z,22.50
2018-06-29T20:06:38.300Z,22.50
2018-06-29T20:09:09.040Z,22.40
2018-06-29T20:11:37.569Z,22.40
2018-06-29T20:14:06.073Z,22.50
2018-06-29T20:16:34.469Z,22.40
2018-06-29T20:19:03.185Z,22.40
2018-06-29T20:21:31.552Z,22.30
2018-06-29T20:23:59.941Z,22.20
2018-06-29T20:26:28.328Z,22.20
2018-06-29T20:28:56.723Z,22.20
2018-06-29T20:31:25.202Z,22.10
2018-06-29T20:33:53.586Z,22.00
2018-06-29T20:36:21.981Z,21.90
2018-06-29T20:38:50.496Z,21.80
2018-06-29T20:41:18.766Z,21.70
2018-06-29T20:43:47.201Z,21.70
2018-06-29T20:46:15.590Z,21.70
2018-06-29T20:48:44.046Z,21.70
2018-06-29T20:51:12.429Z,21.60
2018-06-29T20:53:40.810Z,21.60
2018-06-29T20:56:09.317Z,21.50
2018-06-29T20:58:37.665Z,21.50
2018-06-29T21:01:06.106Z,21.50
2018-06-29T21:03:34.507Z,21.60
2018-06-29T21:06:02.897Z,21.70
2018-06-29T21:08:31.975Z,21.70
2018-06-29T21:11:00.371Z,21.60
2018-06-29T21:13:28.717Z,21.60
2018-06-29T21:15:57.121Z,21.50
2018-06-29T21:18:25.542Z,21.40
2018-06-29T21:20:53.950Z,21.40
2018-06-29T21:23:22.890Z,21.40
2018-06-29T21:25:51.258Z,21.30
2018-06-29T21:28:19.598Z,21.30
2018-06-29T21:30:48.008Z,21.30
2018-06-29T21:33:16.397Z,21.30
2018-06-29T21:35:44.770Z,21.20
2018-06-29T21:38:13.188Z,21.20
2018-06-29T21:40:41.597Z,21.10
2018-06-29T21:43:09.974Z,21.10
2018-06-29T21:45:38.345Z,21.00
2018-06-29T21:48:07.189Z,20.90
2018-06-29T21:50:35.574Z,20.80
2018-06-29T21:53:03.962Z,20.60
2018-06-29T21:55:32.311Z,20.50
2018-06-29T22:00:34.044Z,20.30
2018-06-29T22:03:09.521Z,20.10
2018-06-29T22:05:38.909Z,19.90
2018-06-29T22:08:08.220Z,19.80
2018-06-29T22:10:36.766Z,19.70
2018-06-29T22:13:05.271Z,19.70
2018-06-29T22:15:33.634Z,19.70
2018-06-29T22:18:01.978Z,19.70
2018-06-29T22:20:30.336Z,19.60
2018-06-29T22:22:58.716Z,19.50
2018-06-29T22:25:27.074Z,19.40
2018-06-29T22:27:55.436Z,19.20
2018-06-29T22:30:23.768Z,19.10
2018-06-29T22:32:52.127Z,19.00
2018-06-29T22:35:21.622Z,18.80
2018-06-29T22:37:50.033Z,18.80
2018-06-29T22:40:18.460Z,18.70
2018-06-29T22:42:46.830Z,18.50
2018-06-29T22:45:15.194Z,18.50
2018-06-29T22:47:43.561Z,18.30
2018-06-29T22:50:11.998Z,18.30
2018-06-29T22:52:40.411Z,18.20
2018-06-29T22:55:08.755Z,18.00
2018-06-29T22:57:37.125Z,17.90
2018-06-29T23:00:09.298Z,17.90
2018-06-29T23:02:37.652Z,17.90
2018-06-29T23:05:06.054Z,17.80
2018-06-29T23:07:34.625Z,17.90
2018-06-29T23:10:02.990Z,17.80
2018-06-29T23:12:31.360Z,17.80
2018-06-29T23:14:59.726Z,17.80
2018-06-29T23:17:28.096Z,17.80
2018-06-29T23:20:00.141Z,17.70
2018-06-29T23:22:28.613Z,17.70
2018-06-29T23:24:57.134Z,17.60
2018-06-29T23:27:25.491Z,17.50
2018-06-29T23:29:59.225Z,17.50
2018-06-29T23:32:27.579Z,17.40
2018-06-29T23:34:55.947Z,17.40
2018-06-29T23:37:24.278Z,17.30
2018-06-29T23:39:52.626Z,17.20
2018-06-29T23:42:20.935Z,17.20
2018-06-29T23:44:49.231Z,17.20
2018-06-29T23:49:45.617Z,17.00
2018-06-29T23:52:13.974Z,17.00
2018-06-29T23:54:42.306Z,17.00
2018-06-29T23:57:10.631Z,17.00
2018-06-29T23:59:38.941Z,17.00
